createdAt,value
2022-10-17T00:00:10.952Z,100.00
2022-10-17T00:02:37.632Z,100.00
2022-10-17T00:05:05.950Z,100.00
2022-10-17T00:07:32.668Z,100.00
2022-10-17T00:09:59.522Z,100.00
2022-10-17T00:12:26.312Z,96.85
2022-10-17T00:14:52.967Z,97.06
2022-10-17T00:17:19.677Z,94.46
2022-10-17T00:19:46.340Z,94.65
2022-10-17T00:22:14.911Z,94.87
2022-10-17T00:24:41.568Z,93.39
2022-10-17T00:27:08.428Z,94.77
2022-10-17T00:29:35.073Z,94.82
2022-10-17T00:32:01.762Z,95.99
2022-10-17T00:34:31.144Z,96.14
2022-10-17T00:36:57.919Z,95.52
2022-10-17T00:39:26.051Z,95.48
2022-10-17T00:41:52.726Z,94.66
2022-10-17T00:44:57.007Z,95.31
2022-10-17T00:47:23.723Z,93.55
2022-10-17T00:49:50.609Z,92.30
2022-10-17T00:52:21.453Z,92.00
2022-10-17T00:54:53.956Z,91.72
2022-10-17T00:57:20.838Z,92.10
2022-10-17T00:59:51.628Z,92.29
2022-10-17T01:02:20.885Z,90.70
2022-10-17T01:04:50.016Z,88.83
2022-10-17T01:07:16.870Z,89.05
2022-10-17T01:09:45.228Z,89.13
2022-10-17T01:12:20.022Z,89.06
2022-10-17T01:14:57.903Z,89.26
2022-10-17T01:17:32.169Z,89.22
2022-10-17T01:20:37.536Z,89.74
2022-10-17T01:23:24.002Z,90.44
2022-10-17T01:25:57.128Z,89.85
2022-10-17T01:28:45.249Z,89.24
2022-10-17T01:31:14.777Z,89.34
2022-10-17T01:33:51.491Z,89.40
2022-10-17T01:36:32.332Z,88.72
2022-10-17T01:39:03.762Z,87.42
2022-10-17T01:41:40.083Z,87.44
2022-10-17T01:44:13.547Z,87.73
2022-10-17T01:46:46.948Z,88.08
2022-10-17T01:49:17.328Z,87.39
2022-10-17T01:51:48.112Z,86.47
2022-10-17T01:54:21.403Z,87.53
2022-10-17T01:56:52.391Z,86.67
2022-10-17T01:59:23.798Z,86.52
2022-10-17T02:01:54.898Z,86.22
2022-10-17T02:04:22.451Z,87.36
2022-10-17T02:06:49.296Z,85.13
2022-10-17T02:09:21.885Z,85.13
2022-10-17T02:12:02.708Z,85.19
2022-10-17T02:14:41.611Z,85.84
2022-10-17T02:17:17.413Z,85.71
2022-10-17T02:19:54.332Z,85.81
2022-10-17T02:22:29.938Z,86.26
2022-10-17T02:25:03.562Z,86.51
2022-10-17T02:27:33.903Z,86.09
2022-10-17T02:30:07.021Z,86.81
2022-10-17T02:32:46.605Z,86.94
2022-10-17T02:35:19.746Z,87.29
2022-10-17T02:37:48.657Z,86.18
2022-10-17T02:40:18.964Z,87.75
2022-10-17T02:42:46.457Z,88.70
2022-10-17T02:45:14.829Z,88.67
2022-10-17T02:47:54.368Z,90.56
2022-10-17T02:53:01.336Z,88.84
2022-10-17T02:55:32.359Z,89.48
2022-10-17T02:58:04.233Z,89.39
2022-10-17T03:00:31.794Z,88.93
2022-10-17T03:02:59.893Z,87.35
2022-10-17T03:05:28.338Z,87.57
2022-10-17T03:07:56.264Z,87.70
2022-10-17T03:10:23.218Z,88.10
2022-10-17T03:12:50.086Z,88.70
2022-10-17T03:15:16.899Z,89.56
2022-10-17T03:20:17.074Z,91.90
2022-10-17T03:22:43.887Z,92.67
2022-10-17T03:25:10.571Z,93.14
2022-10-17T03:27:37.289Z,95.08
2022-10-17T03:30:04.553Z,97.32
2022-10-17T03:32:33.141Z,99.29
2022-10-17T03:34:59.879Z,100.00
2022-10-17T03:37:28.336Z,100.00
2022-10-17T03:39:55.570Z,100.00
2022-10-17T03:42:23.042Z,100.00
2022-10-17T03:44:49.739Z,100.00
2022-10-17T03:47:16.394Z,100.00
2022-10-17T03:49:42.988Z,100.00
2022-10-17T03:52:12.333Z,100.00
2022-10-17T03:54:40.572Z,100.00
2022-10-17T03:57:07.464Z,100.00
2022-10-17T03:59:34.239Z,100.00
2022-10-17T04:02:00.937Z,100.00
2022-10-17T04:04:27.865Z,100.00
2022-10-17T04:06:54.534Z,100.00
2022-10-17T04:09:21.173Z,100.00
2022-10-17T04:11:49.234Z,100.00
2022-10-17T04:14:15.892Z,100.00
2022-10-17T04:16:42.594Z,100.00
2022-10-17T04:19:12.807Z,100.00
2022-10-17T04:21:39.787Z,100.00
2022-10-17T04:24:06.503Z,100.00
2022-10-17T04:26:33.114Z,100.00
2022-10-17T04:29:01.479Z,100.00
2022-10-17T04:31:28.242Z,100.00
2022-10-17T04:33:54.937Z,100.00
2022-10-17T04:36:23.014Z,100.00
2022-10-17T04:38:49.623Z,100.00
2022-10-17T04:41:18.302Z,100.00
2022-10-17T04:43:48.577Z,100.00
2022-10-17T04:46:19.249Z,100.00
2022-10-17T04:48:46.017Z,100.00
2022-10-17T04:51:14.809Z,100.00
2022-10-17T04:53:42.945Z,100.00
2022-10-17T04:56:10.920Z,100.00
2022-10-17T04:58:38.043Z,100.00
2022-10-17T05:01:06.235Z,100.00
2022-10-17T05:03:35.220Z,100.00
2022-10-17T05:06:06.338Z,100.00
2022-10-17T05:08:33.400Z,100.00
2022-10-17T05:13:32.693Z,100.00
2022-10-17T05:16:00.833Z,100.00
2022-10-17T05:18:27.703Z,100.00
2022-10-17T05:20:55.876Z,100.00
2022-10-17T05:23:22.559Z,100.00
2022-10-17T05:25:54.155Z,100.00
2022-10-17T05:28:21.028Z,100.00
2022-10-17T05:30:47.857Z,100.00
2022-10-17T05:33:14.720Z,100.00
2022-10-17T05:35:41.628Z,100.00
2022-10-17T05:38:09.770Z,100.00
2022-10-17T05:40:36.487Z,100.00
2022-10-17T05:43:03.605Z,100.00
2022-10-17T05:45:30.344Z,100.00
2022-10-17T05:47:57.294Z,100.00
2022-10-17T05:50:25.270Z,100.00
2022-10-17T05:52:53.870Z,100.00
2022-10-17T05:55:22.173Z,100.00
2022-10-17T05:57:49.603Z,100.00
2022-10-17T06:00:19.195Z,100.00
2022-10-17T06:02:48.521Z,100.00
2022-10-17T06:05:15.510Z,100.00
2022-10-17T06:07:42.324Z,100.00
2022-10-17T06:10:12.399Z,100.00
2022-10-17T06:12:40.558Z,100.00
2022-10-17T06:15:08.687Z,100.00
2022-10-17T06:17:35.970Z,100.00
2022-10-17T06:20:03.047Z,100.00
2022-10-17T06:22:30.027Z,100.00
2022-10-17T06:24:57.061Z,100.00
2022-10-17T06:27:23.786Z,100.00
2022-10-17T06:29:52.033Z,100.00
2022-10-17T06:32:18.869Z,100.00
2022-10-17T06:34:45.631Z,100.00
2022-10-17T06:37:12.385Z,100.00
2022-10-17T06:39:39.175Z,100.00
2022-10-17T06:42:05.896Z,100.00
2022-10-17T06:44:32.647Z,100.00
2022-10-17T06:47:01.686Z,100.00
2022-10-17T06:49:28.834Z,100.00
2022-10-17T06:52:10.456Z,100.00
2022-10-17T06:54:37.228Z,100.00
2022-10-17T06:57:04.006Z,100.00
2022-10-17T06:59:30.740Z,100.00
2022-10-17T07:01:57.840Z,100.00
2022-10-17T07:04:26.000Z,100.00
2022-10-17T07:06:52.831Z,100.00
2022-10-17T07:09:19.701Z,100.00
2022-10-17T07:11:46.512Z,100.00
2022-10-17T07:14:13.168Z,100.00
2022-10-17T07:16:40.107Z,100.00
2022-10-17T07:19:06.872Z,99.59
2022-10-17T07:21:38.218Z,100.00
2022-10-17T07:24:07.689Z,99.90
2022-10-17T07:26:34.505Z,100.00
2022-10-17T07:29:01.952Z,100.00
2022-10-17T07:31:29.041Z,99.62
2022-10-17T07:33:56.211Z,98.01
2022-10-17T07:36:22.974Z,99.07
2022-10-17T07:38:51.368Z,99.86
2022-10-17T07:41:21.716Z,97.92
2022-10-17T07:43:49.517Z,93.98
2022-10-17T07:46:16.491Z,91.85
2022-10-17T07:48:43.414Z,90.08
2022-10-17T07:51:10.398Z,89.23
2022-10-17T07:53:39.094Z,93.30
2022-10-17T07:56:08.804Z,95.80
2022-10-17T07:58:36.602Z,96.18
2022-10-17T08:01:03.861Z,96.40
2022-10-17T08:03:30.818Z,93.42
2022-10-17T08:05:58.811Z,86.73
2022-10-17T08:08:25.595Z,85.43
2022-10-17T08:10:52.519Z,83.44
2022-10-17T08:13:20.937Z,83.55
2022-10-17T08:15:48.020Z,83.32
2022-10-17T08:18:14.808Z,83.68
2022-10-17T08:20:41.523Z,83.77
2022-10-17T08:23:08.226Z,81.31
2022-10-17T08:25:35.018Z,81.62
2022-10-17T08:28:01.875Z,80.18
2022-10-17T08:30:30.806Z,81.68
2022-10-17T08:32:57.731Z,82.18
2022-10-17T08:35:24.323Z,81.08
2022-10-17T08:37:51.118Z,81.48
2022-10-17T08:40:22.519Z,81.48
2022-10-17T08:43:01.886Z,81.53
2022-10-17T08:45:35.898Z,78.73
2022-10-17T08:48:06.273Z,77.39
2022-10-17T08:50:37.245Z,74.02
2022-10-17T08:53:12.505Z,75.99
2022-10-17T08:55:45.324Z,75.66
2022-10-17T08:58:14.643Z,74.24
2022-10-17T09:00:48.433Z,73.58
2022-10-17T09:03:37.061Z,72.61
2022-10-17T09:06:15.779Z,72.62
2022-10-17T09:08:51.712Z,72.00
2022-10-17T09:11:33.506Z,71.90
2022-10-17T09:14:12.249Z,70.32
2022-10-17T09:16:58.635Z,68.39
2022-10-17T09:19:31.189Z,67.65
2022-10-17T09:22:01.795Z,67.82
2022-10-17T09:24:42.548Z,67.11
2022-10-17T09:27:20.773Z,66.49
2022-10-17T09:29:50.539Z,65.01
2022-10-17T09:32:24.455Z,65.01
2022-10-17T09:34:53.046Z,100.00
2022-10-17T09:37:27.843Z,100.00
2022-10-17T09:39:54.908Z,100.00
2022-10-17T09:42:28.632Z,100.00
2022-10-17T09:45:16.614Z,100.00
2022-10-17T09:47:51.292Z,100.00
2022-10-17T09:50:27.243Z,62.86
2022-10-17T09:52:56.250Z,62.88
2022-10-17T09:55:30.471Z,63.36
2022-10-17T09:57:59.008Z,62.98
2022-10-17T10:00:29.421Z,62.05
2022-10-17T10:03:14.423Z,61.01
2022-10-17T10:05:42.357Z,61.08
2022-10-17T10:08:15.762Z,60.54
2022-10-17T10:10:43.840Z,60.42
2022-10-17T10:13:20.433Z,62.50
2022-10-17T10:15:49.606Z,63.23
2022-10-17T10:18:33.905Z,62.63
2022-10-17T10:21:10.237Z,63.06
2022-10-17T10:23:41.289Z,62.08
2022-10-17T10:26:21.615Z,62.85
2022-10-17T10:28:58.114Z,63.19
2022-10-17T10:31:32.042Z,63.30
2022-10-17T10:34:03.785Z,63.99
2022-10-17T10:36:59.258Z,64.87
2022-10-17T10:39:43.124Z,64.00
2022-10-17T10:42:22.555Z,64.98
2022-10-17T10:44:52.557Z,65.25
2022-10-17T10:47:25.761Z,65.56
2022-10-17T10:50:08.650Z,65.10
2022-10-17T10:52:43.252Z,65.75
2022-10-17T10:55:23.222Z,65.99
2022-10-17T10:57:53.271Z,66.39
2022-10-17T11:00:24.554Z,66.89
2022-10-17T11:03:01.688Z,66.25
2022-10-17T11:05:41.778Z,65.81
2022-10-17T11:08:15.380Z,64.72
2022-10-17T11:10:48.430Z,64.84
2022-10-17T11:13:21.160Z,64.03
2022-10-17T11:15:55.250Z,64.19
2022-10-17T11:18:26.612Z,64.10
2022-10-17T11:21:00.058Z,63.78
2022-10-17T11:23:29.035Z,63.06
2022-10-17T11:26:00.158Z,62.05
2022-10-17T11:28:27.122Z,62.63
2022-10-17T11:31:03.358Z,63.34
2022-10-17T11:33:41.983Z,62.07
2022-10-17T11:36:11.988Z,62.10
2022-10-17T11:38:45.801Z,60.83
2022-10-17T11:41:20.619Z,61.21
2022-10-17T11:43:51.858Z,60.64
2022-10-17T11:46:23.901Z,61.18
2022-10-17T11:49:02.245Z,100.00
2022-10-17T11:54:34.389Z,100.00
2022-10-17T11:57:15.526Z,61.18
2022-10-17T11:59:54.622Z,64.06
2022-10-17T12:02:33.186Z,65.36
2022-10-17T12:05:06.910Z,63.24
2022-10-17T12:07:44.162Z,63.36
2022-10-17T12:10:24.955Z,100.00
2022-10-17T12:12:51.954Z,100.00
2022-10-17T12:15:30.308Z,100.00
2022-10-17T12:18:00.939Z,100.00
2022-10-17T12:20:34.725Z,100.00
2022-10-17T12:23:05.251Z,59.25
2022-10-17T12:25:34.305Z,61.13
2022-10-17T12:28:13.233Z,60.60
2022-10-17T12:30:55.346Z,100.00
2022-10-17T12:33:26.783Z,100.00
2022-10-17T12:36:44.006Z,100.00
2022-10-17T12:39:50.302Z,100.00
2022-10-17T12:42:33.401Z,100.00
2022-10-17T12:45:00.869Z,100.00
2022-10-17T12:47:38.472Z,100.00
2022-10-17T12:50:39.311Z,100.00
2022-10-17T12:53:08.502Z,63.50
2022-10-17T12:55:36.231Z,64.51
2022-10-17T12:58:11.701Z,63.88
2022-10-17T13:01:11.581Z,63.64
2022-10-17T13:03:44.954Z,62.04
2022-10-17T13:06:21.214Z,61.17
2022-10-17T13:08:56.133Z,63.90
2022-10-17T13:11:28.154Z,63.72
2022-10-17T13:13:59.181Z,64.50
2022-10-17T13:16:31.791Z,65.84
2022-10-17T13:18:59.059Z,67.00
2022-10-17T13:21:26.143Z,68.21
2022-10-17T13:23:54.389Z,66.57
2022-10-17T13:26:25.591Z,66.15
2022-10-17T13:29:04.357Z,64.73
2022-10-17T13:31:33.291Z,64.17
2022-10-17T13:34:01.745Z,63.47
2022-10-17T13:36:30.421Z,63.47
2022-10-17T13:38:59.110Z,61.85
2022-10-17T13:41:37.080Z,63.09
2022-10-17T13:44:13.380Z,100.00
2022-10-17T13:46:40.781Z,63.09
2022-10-17T13:49:18.729Z,64.68
2022-10-17T13:51:47.740Z,65.78
2022-10-17T13:54:33.011Z,67.01
2022-10-17T13:57:01.742Z,67.24
2022-10-17T13:59:38.664Z,66.73
2022-10-17T14:02:12.469Z,67.30
2022-10-17T14:05:04.050Z,66.75
2022-10-17T14:07:41.550Z,69.10
2022-10-17T14:10:20.608Z,68.41
2022-10-17T14:12:50.431Z,68.13
2022-10-17T14:15:22.103Z,67.32
2022-10-17T14:17:54.992Z,69.13
2022-10-17T14:23:30.142Z,67.29
2022-10-17T14:26:05.912Z,67.35
2022-10-17T14:28:32.643Z,67.42
2022-10-17T14:31:22.300Z,68.43
2022-10-17T14:33:51.168Z,69.96
2022-10-17T14:36:19.402Z,71.95
2022-10-17T14:38:47.948Z,70.78
2022-10-17T14:44:21.608Z,73.84
2022-10-17T14:46:53.989Z,72.77
2022-10-17T14:49:25.984Z,72.28
2022-10-17T14:52:27.838Z,73.31
2022-10-17T14:54:55.490Z,73.30
2022-10-17T14:57:28.690Z,74.39
2022-10-17T14:59:56.327Z,74.65
2022-10-17T15:02:25.532Z,75.79
2022-10-17T15:04:52.874Z,76.51
2022-10-17T15:07:21.311Z,76.45
2022-10-17T15:09:50.373Z,75.45
2022-10-17T15:12:18.682Z,75.01
2022-10-17T15:14:47.894Z,75.02
2022-10-17T15:17:17.099Z,74.18
2022-10-17T15:19:45.498Z,74.42
2022-10-17T15:22:15.092Z,74.41
2022-10-17T15:24:43.271Z,75.22
2022-10-17T15:27:15.758Z,76.86
2022-10-17T15:29:42.675Z,77.81
2022-10-17T15:32:09.552Z,78.24
2022-10-17T15:34:36.397Z,79.26
2022-10-17T15:37:05.592Z,80.33
2022-10-17T15:39:32.479Z,82.54
2022-10-17T15:41:59.879Z,83.50
2022-10-17T15:44:26.733Z,84.34
2022-10-17T15:46:55.706Z,85.53
2022-10-17T15:49:22.394Z,87.11
2022-10-17T15:51:54.378Z,87.67
2022-10-17T15:54:23.472Z,89.04
2022-10-17T15:56:55.138Z,89.75
2022-10-17T15:59:26.037Z,91.64
2022-10-17T16:01:53.001Z,94.56
2022-10-17T16:04:19.673Z,95.28
2022-10-17T16:06:46.437Z,97.01
2022-10-17T16:09:13.269Z,97.30
2022-10-17T16:11:42.931Z,97.19
2022-10-17T16:14:12.678Z,99.25
2022-10-17T16:19:26.334Z,100.00
2022-10-17T16:21:53.902Z,100.00
2022-10-17T16:24:20.844Z,100.00
2022-10-17T16:26:49.167Z,100.00
2022-10-17T16:29:16.632Z,100.00
2022-10-17T16:31:45.642Z,100.00
2022-10-17T16:34:14.122Z,100.00
2022-10-17T16:36:41.670Z,100.00
2022-10-17T16:39:08.593Z,100.00
2022-10-17T16:41:37.018Z,100.00
2022-10-17T16:44:06.686Z,100.00
2022-10-17T16:46:35.777Z,100.00
2022-10-17T16:49:03.836Z,100.00
2022-10-17T16:51:31.311Z,100.00
2022-10-17T16:54:00.400Z,100.00
2022-10-17T16:56:32.632Z,100.00
2022-10-17T16:59:00.130Z,100.00
2022-10-17T17:01:31.462Z,100.00
2022-10-17T17:03:58.308Z,100.00
2022-10-17T17:06:27.193Z,100.00
2022-10-17T17:08:55.057Z,100.00
2022-10-17T17:11:24.295Z,100.00
2022-10-17T17:13:51.174Z,100.00
2022-10-17T17:16:21.482Z,100.00
2022-10-17T17:18:53.526Z,100.00
2022-10-17T17:21:20.332Z,100.00
2022-10-17T17:23:47.049Z,100.00
2022-10-17T17:26:16.171Z,100.00
2022-10-17T17:28:43.981Z,100.00
2022-10-17T17:31:13.971Z,100.00
2022-10-17T17:33:42.000Z,100.00
2022-10-17T17:36:12.747Z,100.00
2022-10-17T17:38:41.263Z,100.00
2022-10-17T17:41:12.125Z,100.00
2022-10-17T17:43:39.079Z,100.00
2022-10-17T17:46:06.413Z,100.00
2022-10-17T17:48:33.212Z,100.00
2022-10-17T17:51:03.816Z,100.00
2022-10-17T17:53:32.103Z,100.00
2022-10-17T17:56:03.057Z,100.00
2022-10-17T17:58:29.773Z,100.00
2022-10-17T18:00:56.558Z,100.00
2022-10-17T18:03:23.303Z,100.00
2022-10-17T18:05:50.042Z,100.00
2022-10-17T18:08:16.802Z,100.00
2022-10-17T18:10:49.427Z,100.00
2022-10-17T18:13:16.808Z,100.00
2022-10-17T18:15:43.890Z,100.00
2022-10-17T18:18:10.647Z,100.00
2022-10-17T18:20:40.686Z,100.00
2022-10-17T18:23:07.666Z,100.00
2022-10-17T18:25:34.403Z,100.00
2022-10-17T18:28:02.740Z,100.00
2022-10-17T18:30:33.743Z,100.00
2022-10-17T18:33:01.422Z,100.00
2022-10-17T18:35:28.121Z,100.00
2022-10-17T18:37:57.188Z,100.00
2022-10-17T18:40:24.336Z,100.00
2022-10-17T18:42:51.079Z,100.00
2022-10-17T18:45:19.361Z,100.00
2022-10-17T18:47:47.404Z,100.00
2022-10-17T18:50:14.446Z,100.00
2022-10-17T18:52:41.145Z,100.00
2022-10-17T18:55:09.185Z,100.00
2022-10-17T18:57:36.206Z,100.00
2022-10-17T19:00:04.453Z,100.00
2022-10-17T19:02:35.569Z,100.00
2022-10-17T19:05:05.300Z,100.00
2022-10-17T19:07:32.595Z,100.00
2022-10-17T19:09:59.685Z,100.00
2022-10-17T19:12:26.512Z,100.00
2022-10-17T19:14:53.404Z,100.00
2022-10-17T19:17:20.200Z,100.00
2022-10-17T19:19:51.765Z,100.00
2022-10-17T19:22:18.568Z,100.00
2022-10-17T19:24:45.542Z,100.00
2022-10-17T19:27:12.328Z,100.00
2022-10-17T19:29:43.528Z,100.00
2022-10-17T19:32:15.592Z,100.00
2022-10-17T19:34:44.953Z,100.00
2022-10-17T19:37:13.077Z,100.00
2022-10-17T19:39:39.779Z,100.00
2022-10-17T19:42:07.683Z,100.00
2022-10-17T19:44:34.712Z,100.00
2022-10-17T19:47:01.483Z,100.00
2022-10-17T19:49:28.445Z,100.00
2022-10-17T19:51:55.148Z,100.00
2022-10-17T19:54:23.641Z,100.00
2022-10-17T19:56:50.861Z,100.00
2022-10-17T19:59:18.233Z,100.00
2022-10-17T20:01:46.196Z,100.00
2022-10-17T20:04:13.429Z,100.00
2022-10-17T20:06:41.158Z,100.00
2022-10-17T20:09:13.890Z,100.00
2022-10-17T20:11:45.043Z,100.00
2022-10-17T20:14:12.040Z,100.00
2022-10-17T20:16:39.028Z,100.00
2022-10-17T20:19:08.587Z,100.00
2022-10-17T20:21:50.423Z,100.00
2022-10-17T20:24:17.499Z,100.00
2022-10-17T20:26:46.115Z,100.00
2022-10-17T20:29:15.284Z,100.00
2022-10-17T20:31:43.651Z,100.00
2022-10-17T20:34:13.836Z,100.00
2022-10-17T20:36:40.996Z,100.00
2022-10-17T20:39:08.101Z,100.00
2022-10-17T20:41:35.362Z,100.00
2022-10-17T20:44:03.715Z,100.00
2022-10-17T20:46:38.474Z,100.00
2022-10-17T20:49:09.906Z,100.00
2022-10-17T20:51:36.778Z,100.00
2022-10-17T20:54:04.210Z,100.00
2022-10-17T20:56:32.491Z,100.00
2022-10-17T20:59:01.331Z,100.00
2022-10-17T21:01:31.457Z,100.00
2022-10-17T21:04:06.086Z,100.00
2022-10-17T21:06:42.911Z,100.00
2022-10-17T21:09:09.898Z,100.00
2022-10-17T21:11:36.721Z,100.00
2022-10-17T21:14:05.709Z,100.00
2022-10-17T21:16:36.493Z,100.00
2022-10-17T21:19:04.251Z,100.00
2022-10-17T21:21:33.898Z,100.00
2022-10-17T21:24:02.046Z,100.00
2022-10-17T21:26:29.507Z,100.00
2022-10-17T21:28:58.003Z,100.00
2022-10-17T21:31:27.757Z,100.00
2022-10-17T21:33:57.652Z,100.00
2022-10-17T21:36:25.938Z,100.00
2022-10-17T21:38:54.509Z,100.00
2022-10-17T21:41:22.909Z,100.00
2022-10-17T21:43:53.238Z,100.00
2022-10-17T21:46:20.749Z,100.00
2022-10-17T21:48:48.694Z,100.00
2022-10-17T21:51:18.732Z,100.00
2022-10-17T21:53:45.890Z,100.00
2022-10-17T21:56:15.069Z,100.00
2022-10-17T21:58:42.469Z,100.00
2022-10-17T22:01:11.047Z,100.00
2022-10-17T22:03:44.051Z,100.00
2022-10-17T22:09:04.552Z,100.00
2022-10-17T22:11:35.014Z,100.00
2022-10-17T22:14:03.752Z,100.00
2022-10-17T22:16:30.467Z,100.00
2022-10-17T22:19:00.514Z,100.00
2022-10-17T22:21:29.998Z,100.00
2022-10-17T22:24:00.519Z,100.00
2022-10-17T22:26:30.145Z,100.00
2022-10-17T22:28:57.253Z,100.00
2022-10-17T22:31:23.984Z,100.00
2022-10-17T22:33:50.675Z,100.00
2022-10-17T22:36:17.368Z,100.00
2022-10-17T22:38:44.106Z,100.00
2022-10-17T22:41:10.817Z,100.00
2022-10-17T22:43:38.931Z,100.00
2022-10-17T22:46:07.281Z,100.00
2022-10-17T22:48:34.600Z,100.00
2022-10-17T22:51:02.121Z,100.00
2022-10-17T22:53:30.047Z,100.00
2022-10-17T22:55:58.435Z,100.00
2022-10-17T22:58:25.682Z,100.00
2022-10-17T23:00:54.698Z,100.00
2022-10-17T23:03:22.077Z,100.00
2022-10-17T23:05:48.868Z,100.00
2022-10-17T23:08:17.860Z,100.00
2022-10-17T23:10:44.918Z,100.00
2022-10-17T23:13:11.855Z,100.00
2022-10-17T23:15:38.618Z,100.00
2022-10-17T23:18:07.696Z,100.00
2022-10-17T23:20:34.620Z,100.00
2022-10-17T23:23:01.348Z,100.00
2022-10-17T23:25:28.127Z,100.00
2022-10-17T23:27:54.758Z,100.00
2022-10-17T23:30:21.202Z,100.00
2022-10-17T23:32:47.717Z,100.00
2022-10-17T23:35:15.760Z,100.00
2022-10-17T23:37:42.197Z,100.00
2022-10-17T23:40:09.385Z,100.00
2022-10-17T23:42:36.047Z,100.00
2022-10-17T23:45:02.702Z,100.00
2022-10-17T23:47:33.051Z,100.00
2022-10-17T23:49:59.839Z,100.00
2022-10-17T23:52:27.656Z,100.00
2022-10-17T23:54:54.074Z,100.00
2022-10-17T23:57:20.539Z,100.00
2022-10-17T23:59:47.185Z,100.00
